Time;durP1;ratioP1;P1;durP2;ratioP2;P2;SDS_P1;SDS_P2;PMS_P1;PMS_P2;Temp;Humidity;BMP_temperature;BMP_pressure;BME280_temperature;BME280_humidity;BME280_pressure;Samples;Min_cycle;Max_cycle;Signal;HPM_P1;HPM_P2
2023/06/05 00:23:15;;;;;;;0.57;0.50;;;24.70;44.70;;;;;;719881;23;20289;-87
2023/06/05 00:40:52;;;;;;;0.40;0.30;;;23.80;45.30;;;;;;6085324;28;20072;-86
2023/06/05 00:51:20;;;;;;;0.73;0.40;;;24.70;44.80;;;;;;6376576;23;20093;-86
2023/06/05 00:54:24;;;;;;;0.60;0.50;;;22.90;45.10;;;;;;6155690;28;20103;-86
2023/06/05 00:57:44;;;;;;;0.77;0.45;;;24.60;46.50;;;;;;6940577;23;20090;-86
2023/06/05 01:00:55;;;;;;;1.10;0.57;;;24.80;46.30;;;;;;6115508;28;20043;-86
2023/06/05 01:04:07;;;;;;;0.60;0.50;;;23.90;47.20;;;;;;6277379;23;20036;-88
2023/06/05 01:07:22;;;;;;;0.55;0.40;;;23.90;45.50;;;;;;6072078;29;20045;-86
2023/06/05 01:17:47;;;;;;;1.13;0.50;;;22.90;44.00;;;;;;7032982;23;20359;-86
2023/06/05 01:20:48;;;;;;;0.60;0.40;;;24.70;45.70;;;;;;6197191;23;20050;-55
2023/06/05 01:23:53;;;;;;;0.35;0.22;;;24.70;45.90;;;;;;6121662;29;20379;-55
2023/06/05 01:27:03;;;;;;;0.75;0.40;;;24.70;45.90;;;;;;6121449;29;20571;-54
2023/06/05 01:30:14;;;;;;;0.40;0.30;;;24.70;45.60;;;;;;6117143;29;20627;-54
2023/06/05 01:33:25;;;;;;;0.60;0.40;;;24.70;45.70;;;;;;6118742;29;20048;-55
2023/06/05 01:36:28;;;;;;;0.68;0.40;;;24.50;45.50;;;;;;6104702;29;20048;-55
2023/06/05 01:39:30;;;;;;;0.32;0.17;;;24.80;45.70;;;;;;6121759;29;20115;-55
2023/06/05 01:42:32;;;;;;;0.60;0.40;;;24.80;45.70;;;;;;6142810;29;20043;-52
2023/06/05 01:45:37;;;;;;;0.50;0.50;;;24.80;45.70;;;;;;6147960;29;20051;-52
2023/06/05 01:48:40;;;;;;;0.63;0.40;;;24.80;45.70;;;;;;6151058;29;20036;-52
2023/06/05 01:51:42;;;;;;;0.55;0.47;;;24.80;45.90;;;;;;6150639;29;20242;-53
2023/06/05 01:54:46;;;;;;;0.30;0.30;;;24.70;45.90;;;;;;6144080;29;20070;-51
2023/06/05 01:57:48;;;;;;;0.40;0.38;;;24.60;45.70;;;;;;6141884;29;20051;-51
2023/06/05 02:00:50;;;;;;;0.50;0.45;;;24.80;45.80;;;;;;6140147;29;20050;-47
2023/06/05 02:03:53;;;;;;;0.65;0.40;;;24.70;45.90;;;;;;6105223;29;20511;-51
2023/06/05 02:06:54;;;;;;;1.10;0.50;;;24.70;45.90;;;;;;6138120;29;20126;-51
2023/06/05 02:10:01;;;;;;;0.40;0.38;;;24.80;46.00;;;;;;6137818;29;20047;-47
2023/06/05 02:13:03;;;;;;;0.20;0.20;;;24.70;46.00;;;;;;6136874;29;20075;-49
2023/06/05 02:16:05;;;;;;;0.52;0.30;;;24.70;45.90;;;;;;6138415;29;20114;-48
2023/06/05 02:19:07;;;;;;;0.40;0.40;;;24.70;45.80;;;;;;6139501;29;20047;-52
2023/06/05 02:22:08;;;;;;;0.77;0.60;;;24.70;46.00;;;;;;6138443;29;20039;-51
2023/06/05 02:25:12;;;;;;;0.65;0.43;;;24.60;46.00;;;;;;6138590;29;20036;-47
2023/06/05 02:28:16;;;;;;;0.45;0.32;;;24.70;46.10;;;;;;6137148;29;20047;-48
2023/06/05 02:31:17;;;;;;;0.70;0.30;;;24.70;45.40;;;;;;6136827;29;20054;-48
2023/06/05 02:34:20;;;;;;;1.05;0.40;;;24.70;46.20;;;;;;6137697;29;20483;-50
2023/06/05 02:37:22;;;;;;;0.30;0.20;;;24.70;45.50;;;;;;6136994;29;20046;-48
2023/06/05 02:40:24;;;;;;;0.50;0.38;;;24.60;46.20;;;;;;6136275;29;20075;-48
2023/06/05 02:43:26;;;;;;;0.50;0.30;;;24.60;46.10;;;;;;6138934;29;20036;-48
2023/06/05 02:46:30;;;;;;;1.27;0.60;;;24.60;46.20;;;;;;6138681;29;20059;-49
2023/06/05 02:49:32;;;;;;;0.75;0.50;;;24.70;45.30;;;;;;6136590;29;20055;-50
2023/06/05 02:52:35;;;;;;;0.70;0.40;;;24.60;46.20;;;;;;6139001;29;20079;-47
2023/06/05 02:55:44;;;;;;;0.63;0.40;;;24.40;46.20;;;;;;6138283;29;20039;-50
2023/06/05 02:58:51;;;;;;;0.57;0.40;;;24.50;46.30;;;;;;6138255;29;20115;-51
2023/06/05 03:01:53;;;;;;;0.60;0.40;;;24.60;46.30;;;;;;6137974;29;20187;-49
2023/06/05 03:04:55;;;;;;;0.45;0.30;;;24.60;46.50;;;;;;6137526;29;20248;-49
2023/06/05 03:08:01;;;;;;;0.50;0.30;;;24.50;46.40;;;;;;6137772;29;20042;-50
2023/06/05 03:11:04;;;;;;;0.77;0.45;;;24.50;46.50;;;;;;6135448;29;20043;-48
2023/06/05 03:14:06;;;;;;;0.45;0.30;;;24.60;46.30;;;;;;6138130;29;20051;-49
2023/06/05 03:17:10;;;;;;;0.43;0.30;;;24.50;46.60;;;;;;6138559;29;20127;-48
2023/06/05 03:20:12;;;;;;;0.50;0.30;;;24.50;46.50;;;;;;6137820;29;20036;-51
2023/06/05 03:23:14;;;;;;;0.80;0.57;;;24.60;46.60;;;;;;6138561;29;20576;-51
2023/06/05 03:26:16;;;;;;;0.32;0.30;;;24.50;46.60;;;;;;6137845;29;20047;-50
2023/06/05 03:29:18;;;;;;;0.40;0.40;;;24.40;47.10;;;;;;6136461;29;20040;-51
2023/06/05 03:32:20;;;;;;;0.30;0.20;;;24.30;46.40;;;;;;6136607;29;20087;-49
2023/06/05 03:35:22;;;;;;;0.57;0.40;;;24.50;46.70;;;;;;6136868;29;20050;-50
2023/06/05 03:38:23;;;;;;;0.63;0.30;;;26.00;47.50;;;;;;6136567;29;20100;-51
2023/06/05 03:41:26;;;;;;;0.60;0.40;;;24.40;46.60;;;;;;6136719;29;20063;-47
2023/06/05 03:44:29;;;;;;;0.95;0.43;;;24.40;46.20;;;;;;6136914;29;20178;-51
2023/06/05 03:47:34;;;;;;;0.30;0.30;;;24.00;46.50;;;;;;6120596;29;20047;-55
2023/06/05 03:50:38;;;;;;;0.80;0.50;;;24.00;46.30;;;;;;6117948;29;20050;-55
2023/06/05 03:53:40;;;;;;;0.40;0.30;;;24.40;46.60;;;;;;6119142;29;20095;-55
2023/06/05 03:56:49;;;;;;;0.55;0.40;;;24.50;46.80;;;;;;6117917;29;20130;-54
2023/06/05 03:59:51;;;;;;;0.60;0.50;;;24.30;46.60;;;;;;6117989;29;20070;-55
2023/06/05 04:02:53;;;;;;;0.52;0.40;;;24.50;46.70;;;;;;6117439;29;20044;-55
2023/06/05 04:05:56;;;;;;;0.40;0.40;;;24.40;46.80;;;;;;6118174;29;20123;-55
2023/06/05 04:08:57;;;;;;;0.55;0.45;;;24.50;46.90;;;;;;6118304;29;20095;-55
2023/06/05 04:12:03;;;;;;;0.50;0.40;;;24.40;46.90;;;;;;6118518;29;20060;-54
2023/06/05 04:15:08;;;;;;;0.90;0.47;;;24.20;46.60;;;;;;6117905;29;20042;-55
2023/06/05 04:18:10;;;;;;;0.63;0.40;;;24.30;46.60;;;;;;6116670;29;20036;-55
2023/06/05 04:21:12;;;;;;;1.08;0.55;;;24.30;46.80;;;;;;6118409;29;20135;-55
2023/06/05 04:24:13;;;;;;;1.00;0.35;;;24.20;46.90;;;;;;6117936;29;20266;-55
2023/06/05 04:27:17;;;;;;;0.55;0.30;;;24.40;46.90;;;;;;6117894;29;20040;-56
2023/06/05 04:30:18;;;;;;;0.52;0.40;;;24.20;46.70;;;;;;6118438;29;20036;-56
2023/06/05 04:33:21;;;;;;;0.63;0.43;;;24.30;46.90;;;;;;6122269;29;20466;-53
2023/06/05 04:36:22;;;;;;;0.50;0.50;;;24.10;46.90;;;;;;6122266;29;20075;-56
2023/06/05 04:39:25;;;;;;;0.30;0.30;;;24.40;47.00;;;;;;6122061;29;20048;-55
2023/06/05 04:42:27;;;;;;;0.70;0.40;;;24.90;47.30;;;;;;6121763;29;20040;-55
2023/06/05 04:45:29;;;;;;;0.50;0.30;;;24.30;47.00;;;;;;6120729;29;20055;-56
2023/06/05 04:48:30;;;;;;;0.30;0.30;;;24.00;47.00;;;;;;6120370;29;20044;-56
2023/06/05 04:51:33;;;;;;;1.08;0.45;;;23.80;46.80;;;;;;6119752;29;20337;-54
2023/06/05 04:54:34;;;;;;;0.70;0.60;;;24.20;47.10;;;;;;6120694;29;20035;-55
2023/06/05 04:57:37;;;;;;;0.50;0.35;;;24.10;47.10;;;;;;6121227;29;20131;-55
2023/06/05 05:00:40;;;;;;;0.77;0.40;;;24.30;47.00;;;;;;6119281;29;20586;-54
2023/06/05 05:03:46;;;;;;;0.57;0.47;;;23.80;46.70;;;;;;6118573;29;20048;-56
2023/06/05 05:06:51;;;;;;;0.95;0.40;;;23.70;46.80;;;;;;6117294;29;20039;-55
2023/06/05 05:09:53;;;;;;;0.93;0.43;;;24.30;47.10;;;;;;6118528;29;20043;-56
2023/06/05 05:12:56;;;;;;;0.43;0.30;;;24.10;47.20;;;;;;6117584;29;20039;-55
2023/06/05 05:15:59;;;;;;;0.45;0.30;;;24.10;47.00;;;;;;6118822;29;20043;-55
2023/06/05 05:19:01;;;;;;;0.90;0.40;;;24.10;45.70;;;;;;6117335;29;20059;-55
2023/06/05 05:22:02;;;;;;;0.55;0.30;;;24.20;47.10;;;;;;6119880;29;20570;-54
2023/06/05 05:25:07;;;;;;;0.32;0.20;;;24.20;47.20;;;;;;6118686;29;20048;-56
2023/06/05 05:28:09;;;;;;;0.30;0.20;;;24.00;46.90;;;;;;6121016;29;20630;-55
2023/06/05 05:31:12;;;;;;;0.70;0.40;;;24.20;47.10;;;;;;6120975;29;20035;-54
2023/06/05 05:34:15;;;;;;;0.70;0.40;;;24.00;46.90;;;;;;6119754;29;20114;-55
2023/06/05 05:37:16;;;;;;;0.50;0.40;;;24.00;47.20;;;;;;6117522;29;20054;-54
2023/06/05 05:40:18;;;;;;;1.20;0.32;;;24.20;47.20;;;;;;6116520;29;20048;-55
2023/06/05 05:43:20;;;;;;;0.35;0.35;;;24.10;47.20;;;;;;6118952;29;20091;-56
2023/06/05 05:46:22;;;;;;;0.80;0.47;;;24.00;47.10;;;;;;6118496;29;20047;-55
2023/06/05 05:49:23;;;;;;;0.63;0.28;;;24.20;47.30;;;;;;6117412;29;20035;-54
2023/06/05 05:52:25;;;;;;;0.65;0.45;;;23.80;47.00;;;;;;6114891;29;20047;-54
2023/06/05 05:55:28;;;;;;;0.57;0.45;;;24.10;47.30;;;;;;6118131;29;20739;-55
2023/06/05 05:58:31;;;;;;;0.90;0.43;;;24.00;47.20;;;;;;6115891;29;20052;-54
2023/06/05 06:01:33;;;;;;;0.52;0.38;;;23.80;47.10;;;;;;6113921;29;20044;-53
2023/06/05 06:04:34;;;;;;;0.68;0.50;;;24.10;47.30;;;;;;6103433;29;20631;-54
2023/06/05 06:07:40;;;;;;;0.43;0.40;;;23.60;47.10;;;;;;6113536;29;20048;-53
2023/06/05 06:10:42;;;;;;;0.70;0.40;;;23.90;47.20;;;;;;6112587;29;20747;-54
2023/06/05 06:13:47;;;;;;;0.73;0.30;;;24.20;47.50;;;;;;6109212;29;20044;-54
2023/06/05 06:16:50;;;;;;;1.20;0.40;;;24.00;47.10;;;;;;6108986;29;20035;-54
2023/06/05 06:19:54;;;;;;;0.70;0.45;;;23.90;47.20;;;;;;6112716;29;20459;-51
2023/06/05 06:22:55;;;;;;;0.50;0.32;;;23.80;46.90;;;;;;6110851;29;20773;-54
2023/06/05 06:25:57;;;;;;;2.08;1.20;;;24.00;47.20;;;;;;6098315;29;20747;-55
2023/06/05 06:28:59;;;;;;;5.30;1.30;;;24.10;47.30;;;;;;6110188;29;20711;-57
2023/06/05 06:32:02;;;;;;;3.70;1.70;;;23.70;47.10;;;;;;6112894;29;20067;-57
2023/06/05 06:35:06;;;;;;;2.97;1.40;;;24.10;47.20;;;;;;6102642;29;20818;-57
2023/06/05 06:38:07;;;;;;;4.30;1.63;;;24.10;47.50;;;;;;6107612;29;20530;-58
2023/06/05 06:41:09;;;;;;;4.40;1.52;;;23.40;47.10;;;;;;6105338;29;20039;-57
2023/06/05 06:44:11;;;;;;;4.30;2.08;;;23.90;48.50;;;;;;6102364;29;20032;-55
2023/06/05 06:47:13;;;;;;;3.97;1.73;;;23.70;47.70;;;;;;6104682;29;20039;-55
2023/06/05 06:50:15;;;;;;;4.40;1.52;;;23.70;47.80;;;;;;6109192;29;20063;-54
2023/06/05 06:53:17;;;;;;;7.28;1.95;;;23.60;48.00;;;;;;6108664;29;20056;-53
2023/06/05 06:56:18;;;;;;;5.60;1.63;;;23.80;48.40;;;;;;6095196;29;20040;-55
2023/06/05 06:59:22;;;;;;;6.45;1.40;;;23.70;48.10;;;;;;6092602;29;20760;-53
2023/06/05 07:02:27;;;;;;;2.10;0.85;;;23.60;48.50;;;;;;6095750;29;20044;-53
2023/06/05 07:05:28;;;;;;;4.22;1.20;;;23.60;48.60;;;;;;6090176;29;20044;-53
2023/06/05 07:08:30;;;;;;;;;;;23.10;48.30;;;;;;6087306;29;20114;-54
2023/06/05 07:11:31;;;;;;;4.05;0.70;;;23.70;48.60;;;;;;6085074;29;19973;-53
2023/06/05 07:14:33;;;;;;;3.35;0.90;;;23.60;48.60;;;;;;6085322;29;20593;-51
2023/06/05 07:17:40;;;;;;;1.95;0.95;;;23.70;48.10;;;;;;6080175;29;20068;-51
2023/06/05 07:20:42;;;;;;;4.30;0.93;;;23.50;46.50;;;;;;6078962;29;20455;-58
2023/06/05 07:23:44;;;;;;;4.25;1.00;;;24.10;48.90;;;;;;6053968;29;20154;-58
2023/06/05 07:28:36;;;;;;;3.25;0.98;;;23.40;71.90;;;;;;6412875;27;20112;-61
2023/06/05 07:31:38;;;;;;;3.42;1.30;;;23.80;48.50;;;;;;6433425;27;20029;-59
2023/06/05 07:34:40;;;;;;;2.90;1.00;;;24.00;49.20;;;;;;6419297;27;20119;-59
2023/06/05 07:37:42;;;;;;;2.05;0.70;;;24.00;49.20;;;;;;6399065;27;20748;-59
2023/06/05 07:40:43;;;;;;;2.47;0.70;;;24.20;49.30;;;;;;6392497;27;20031;-58
2023/06/05 07:43:46;;;;;;;0.95;0.50;;;23.90;49.30;;;;;;6386055;27;20038;-57
2023/06/05 07:46:48;;;;;;;3.67;0.70;;;24.20;49.60;;;;;;6381925;27;20042;-61
2023/06/05 07:49:58;;;;;;;1.88;0.52;;;24.20;49.60;;;;;;6385322;27;20038;-57
2023/06/05 07:53:03;;;;;;;2.58;0.60;;;24.10;50.10;;;;;;6406181;27;20038;-54
2023/06/05 07:58:35;;;;;;;2.08;0.50;;;24.10;46.00;;;;;;6418433;27;20121;-58
2023/06/05 08:01:36;;;;;;;3.22;0.60;;;24.10;48.10;;;;;;6392472;27;20026;-57
2023/06/05 08:04:41;;;;;;;0.88;0.50;;;24.40;48.70;;;;;;6360603;27;20079;-53
2023/06/05 08:07:42;;;;;;;1.10;0.57;;;24.30;48.20;;;;;;6408120;27;20104;-57
2023/06/05 08:10:47;;;;;;;4.20;0.85;;;24.50;48.30;;;;;;6394448;27;20037;-57
2023/06/05 08:13:49;;;;;;;1.90;0.57;;;24.30;48.30;;;;;;6408377;27;20639;-53
2023/06/05 08:16:52;;;;;;;1.63;0.40;;;24.10;48.60;;;;;;6387393;27;20044;-49
2023/06/05 08:19:54;;;;;;;2.25;0.73;;;24.50;48.40;;;;;;6362394;27;20426;-54
2023/06/05 08:22:58;;;;;;;1.38;0.57;;;24.10;48.10;;;;;;6409495;27;20030;-55
2023/06/05 08:25:59;;;;;;;1.75;0.52;;;24.50;47.80;;;;;;6409706;27;20030;-55
2023/06/05 08:29:02;;;;;;;1.25;0.50;;;24.20;48.20;;;;;;6412982;27;20094;-54
2023/06/05 08:32:07;;;;;;;0.68;0.60;;;24.50;48.40;;;;;;6406428;27;20037;-54
2023/06/05 08:35:10;;;;;;;3.80;0.60;;;24.20;47.80;;;;;;6403939;27;20361;-54
2023/06/05 08:38:11;;;;;;;0.55;0.32;;;24.70;47.80;;;;;;6412881;27;20579;-50
2023/06/05 08:41:16;;;;;;;0.80;0.43;;;24.80;48.00;;;;;;6407114;27;20033;-53
2023/06/05 08:44:18;;;;;;;0.50;0.40;;;24.10;47.40;;;;;;6414623;27;20111;-55
2023/06/05 08:47:23;;;;;;;2.67;0.40;;;24.80;48.10;;;;;;6402106;27;20046;-56
2023/06/05 08:50:28;;;;;;;1.00;0.40;;;24.70;47.70;;;;;;6392785;27;20109;-55
2023/06/05 08:53:32;;;;;;;0.80;0.30;;;24.80;47.60;;;;;;6413398;27;20048;-57
2023/06/05 08:56:36;;;;;;;1.27;0.40;;;24.60;47.20;;;;;;6392300;27;20042;-52
2023/06/05 08:59:38;;;;;;;2.90;0.50;;;24.80;47.80;;;;;;6405968;27;20862;-57
2023/06/05 09:02:43;;;;;;;1.27;0.40;;;24.60;47.10;;;;;;6416482;27;20124;-58
2023/06/05 09:05:45;;;;;;;1.65;0.40;;;24.70;46.90;;;;;;6382768;27;20807;-59
2023/06/05 09:08:46;;;;;;;0.70;0.60;;;24.50;46.90;;;;;;6389712;27;20072;-55
2023/06/05 09:12:02;;;;;;;1.27;0.32;;;24.80;47.70;;;;;;6382967;27;20058;-56
2023/06/05 09:15:21;;;;;;;0.70;0.40;;;24.90;47.10;;;;;;6342278;27;20030;-56
2023/06/05 09:18:22;;;;;;;0.70;0.68;;;24.90;47.70;;;;;;6331126;27;20038;-58
2023/06/05 09:21:30;;;;;;;0.90;0.40;;;24.70;47.00;;;;;;6383913;27;20094;-57
2023/06/05 09:24:37;;;;;;;1.60;0.50;;;24.90;47.00;;;;;;6382711;27;20030;-55
2023/06/05 09:27:39;;;;;;;0.57;0.30;;;24.90;46.20;;;;;;6369673;27;20050;-58
2023/06/05 09:30:56;;;;;;;1.02;0.80;;;24.80;46.90;;;;;;6380754;27;20030;-59
2023/06/05 09:33:58;;;;;;;1.50;0.70;;;24.90;47.20;;;;;;6382884;27;20034;-59
2023/06/05 09:37:06;;;;;;;1.08;0.50;;;24.70;47.20;;;;;;6384848;27;20048;-54
2023/06/05 09:40:14;;;;;;;0.60;0.60;;;24.80;47.10;;;;;;6368289;27;20038;-55
2023/06/05 09:43:22;;;;;;;0.95;0.50;;;25.00;47.20;;;;;;6384948;27;20736;-58
2023/06/05 09:46:25;;;;;;;0.50;0.40;;;25.00;47.30;;;;;;6388794;27;20069;-59
2023/06/05 09:49:30;;;;;;;1.48;0.40;;;24.90;46.70;;;;;;6393690;27;20066;-56
2023/06/05 09:52:35;;;;;;;1.70;0.70;;;26.30;48.10;;;;;;6378603;27;20037;-58
2023/06/05 09:55:37;;;;;;;2.60;0.60;;;25.20;47.00;;;;;;6387634;27;20030;-56
2023/06/05 09:58:44;;;;;;;1.35;0.75;;;25.10;47.00;;;;;;6386007;27;20042;-57
2023/06/05 10:01:48;;;;;;;1.15;0.30;;;25.30;46.90;;;;;;6385468;27;20037;-55
2023/06/05 10:04:56;;;;;;;2.60;0.60;;;25.20;46.90;;;;;;6364433;27;20354;-58
2023/06/05 10:07:58;;;;;;;1.73;0.40;;;25.10;47.20;;;;;;6384931;27;20038;-53
2023/06/05 10:11:01;;;;;;;1.35;0.63;;;25.20;46.70;;;;;;6375031;27;20086;-57
2023/06/05 10:14:06;;;;;;;1.30;0.68;;;25.10;46.80;;;;;;6377090;27;20038;-53
2023/06/05 10:17:09;;;;;;;2.35;0.50;;;25.20;46.60;;;;;;6379060;27;20034;-56
2023/06/05 10:20:11;;;;;;;1.27;0.50;;;25.30;46.30;;;;;;6367468;27;21168;-59
2023/06/05 10:23:17;;;;;;;3.10;0.47;;;25.30;46.30;;;;;;6374670;27;20135;-54
2023/06/05 10:26:34;;;;;;;1.63;0.47;;;24.80;46.10;;;;;;6387917;27;20133;-54
2023/06/05 10:29:51;;;;;;;1.92;0.60;;;25.30;45.80;;;;;;6386168;27;20716;-55
2023/06/05 10:33:09;;;;;;;2.53;0.70;;;25.30;46.10;;;;;;6359522;27;20110;-54
2023/06/05 10:36:24;;;;;;;2.63;0.82;;;25.70;46.30;;;;;;6380022;27;20046;-55
2023/06/05 10:39:29;;;;;;;0.70;0.50;;;25.30;45.70;;;;;;6375104;27;20035;-53
2023/06/05 10:42:30;;;;;;;1.67;0.70;;;25.20;45.60;;;;;;6375742;27;20062;-55
2023/06/05 10:45:32;;;;;;;2.33;0.73;;;25.50;45.60;;;;;;6377492;27;20037;-56
2023/06/05 10:48:59;;;;;;;0.68;0.43;;;25.30;45.80;;;;;;6387720;27;20045;-55
2023/06/05 10:52:03;;;;;;;1.27;0.60;;;25.30;45.10;;;;;;6388559;27;20041;-52
2023/06/05 10:55:06;;;;;;;1.27;0.50;;;25.40;45.60;;;;;;6386269;27;20751;-54
2023/06/05 10:58:13;;;;;;;1.30;0.68;;;25.40;45.00;;;;;;6389211;27;20046;-53
2023/06/05 11:01:19;;;;;;;3.42;0.80;;;25.40;45.00;;;;;;6389686;27;20033;-54
2023/06/05 11:04:24;;;;;;;1.13;0.55;;;25.40;45.50;;;;;;6388824;27;20117;-49
2023/06/05 11:07:28;;;;;;;1.23;1.05;;;25.00;45.20;;;;;;6378572;27;20042;-54
2023/06/05 11:10:29;;;;;;;1.98;0.75;;;25.30;45.20;;;;;;6386898;27;20180;-56
2023/06/05 11:13:55;;;;;;;1.40;0.63;;;25.90;45.20;;;;;;6383232;27;20038;-55
2023/06/05 11:16:58;;;;;;;1.52;0.70;;;25.30;44.50;;;;;;6356154;27;20034;-54
2023/06/05 11:20:00;;;;;;;1.88;0.63;;;25.50;44.60;;;;;;6387349;27;20061;-54
2023/06/05 11:23:08;;;;;;;0.80;0.65;;;25.40;44.80;;;;;;6327469;27;20038;-53
2023/06/05 11:26:40;;;;;;;1.80;0.60;;;25.30;44.80;;;;;;6386359;27;20655;-54
2023/06/05 11:29:43;;;;;;;1.23;0.60;;;25.50;44.50;;;;;;6365921;27;20864;-55
2023/06/05 11:32:45;;;;;;;0.95;0.65;;;25.50;44.50;;;;;;6387835;27;20034;-55
2023/06/05 11:35:49;;;;;;;0.90;0.60;;;25.40;44.40;;;;;;6352846;27;20087;-55
2023/06/05 11:38:55;;;;;;;0.60;0.40;;;25.40;44.20;;;;;;6362073;27;20094;-58
2023/06/05 11:41:57;;;;;;;1.23;0.45;;;25.50;44.30;;;;;;6385509;27;20030;-56
2023/06/05 11:44:58;;;;;;;1.27;0.70;;;25.50;44.40;;;;;;6388776;27;20038;-57
2023/06/05 11:48:08;;;;;;;0.70;0.60;;;25.60;44.60;;;;;;6388677;27;20038;-57
2023/06/05 11:51:09;;;;;;;0.77;0.57;;;25.70;44.20;;;;;;6364167;27;20037;-56
2023/06/05 11:54:22;;;;;;;2.05;0.60;;;25.60;44.20;;;;;;6380053;27;20728;-54
2023/06/05 11:57:27;;;;;;;0.70;0.70;;;25.60;44.50;;;;;;6380829;27;20184;-58
2023/06/05 12:00:40;;;;;;;1.83;0.50;;;25.50;44.10;;;;;;6381989;27;20695;-58
2023/06/05 12:03:43;;;;;;;1.15;0.80;;;25.60;44.10;;;;;;6388065;27;20043;-59
2023/06/05 12:06:47;;;;;;;1.17;0.70;;;25.70;44.20;;;;;;6360371;27;20034;-59
2023/06/05 12:09:52;;;;;;;0.45;0.40;;;25.60;44.30;;;;;;6385043;27;20101;-60
2023/06/05 12:12:54;;;;;;;0.70;0.50;;;25.60;44.20;;;;;;6376306;27;20087;-61
2023/06/05 12:15:57;;;;;;;1.25;0.80;;;25.70;44.50;;;;;;6376405;27;20122;-62
2023/06/05 12:18:59;;;;;;;2.90;0.82;;;25.70;44.50;;;;;;6377655;27;20093;-58
2023/06/05 12:22:16;;;;;;;1.45;0.70;;;25.60;44.30;;;;;;6377053;27;20030;-58
2023/06/05 12:25:19;;;;;;;1.20;0.55;;;25.70;44.30;;;;;;6384888;27;20037;-51
2023/06/05 12:28:26;;;;;;;1.55;0.60;;;25.50;44.20;;;;;;6392400;27;20034;-59
2023/06/05 12:31:39;;;;;;;0.65;0.60;;;25.90;44.70;;;;;;6376791;27;20035;-56
2023/06/05 12:34:42;;;;;;;0.43;0.43;;;25.80;44.50;;;;;;6347150;27;20033;-58
2023/06/05 12:37:47;;;;;;;0.90;0.70;;;25.60;44.00;;;;;;6369540;27;20816;-58
2023/06/05 12:40:49;;;;;;;1.90;0.57;;;25.50;44.10;;;;;;6374100;27;20030;-58
2023/06/05 12:44:07;;;;;;;0.52;0.40;;;25.70;44.30;;;;;;6411821;22;20059;-59
2023/06/05 12:47:09;;;;;;;0.85;0.60;;;25.70;44.10;;;;;;6300937;28;20043;-53
2023/06/05 12:50:12;;;;;;;2.15;0.70;;;25.70;44.10;;;;;;6305107;28;20054;-59
2023/06/05 12:53:13;;;;;;;2.28;0.88;;;25.70;44.50;;;;;;6304956;28;20089;-59
2023/06/05 12:56:16;;;;;;;4.60;1.30;;;25.70;44.40;;;;;;6309765;28;20044;-60
2023/06/05 12:59:17;;;;;;;3.47;1.38;;;25.80;44.20;;;;;;6316493;28;20054;-59
2023/06/05 13:02:19;;;;;;;2.60;1.67;;;25.60;43.70;;;;;;6308232;28;20035;-57
2023/06/05 13:05:20;;;;;;;2.20;1.60;;;25.90;43.50;;;;;;6314868;28;20669;-56
2023/06/05 13:08:22;;;;;;;2.88;1.35;;;25.30;42.80;;;;;;6312205;28;20642;-57
2023/06/05 13:11:24;;;;;;;2.17;1.55;;;25.80;42.80;;;;;;6290759;28;20770;-55
2023/06/05 13:14:26;;;;;;;3.20;1.42;;;25.90;42.80;;;;;;6303783;28;20609;-56
2023/06/05 13:17:30;;;;;;;3.00;1.40;;;25.90;42.30;;;;;;6312551;28;20736;-55
2023/06/05 13:20:33;;;;;;;1.80;1.20;;;25.50;42.10;;;;;;6310533;28;20609;-56
2023/06/05 13:23:35;;;;;;;1.58;1.40;;;25.70;42.30;;;;;;6306761;28;20154;-60
2023/06/05 13:26:37;;;;;;;2.72;1.60;;;25.80;42.30;;;;;;6256534;28;20439;-59
2023/06/05 13:29:39;;;;;;;2.88;1.58;;;26.00;42.80;;;;;;6310005;28;20062;-60
2023/06/05 13:32:41;;;;;;;3.97;1.85;;;26.00;42.40;;;;;;6308540;28;20044;-61
2023/06/05 13:35:42;;;;;;;2.25;1.55;;;25.90;42.40;;;;;;6311875;28;20035;-60
2023/06/05 13:38:44;;;;;;;2.65;1.42;;;25.60;42.10;;;;;;6315781;28;20093;-59
2023/06/05 13:41:49;;;;;;;2.80;1.58;;;25.90;42.60;;;;;;6311284;28;20039;-63
2023/06/05 13:44:51;;;;;;;3.13;1.65;;;25.80;41.30;;;;;;6313887;28;20028;-59
2023/06/05 13:47:52;;;;;;;4.20;1.55;;;25.90;42.10;;;;;;6312041;28;20039;-60
2023/06/05 13:50:54;;;;;;;4.40;1.75;;;25.80;42.00;;;;;;6303283;28;20043;-57
2023/06/05 13:53:56;;;;;;;3.55;1.60;;;25.60;42.20;;;;;;6290090;28;20040;-54
2023/06/05 13:56:59;;;;;;;2.55;1.42;;;25.90;42.10;;;;;;6290648;28;20757;-57
2023/06/05 14:00:01;;;;;;;3.75;1.33;;;25.80;42.50;;;;;;6273241;28;20035;-59
2023/06/05 14:03:02;;;;;;;3.13;1.25;;;27.00;43.30;;;;;;6268319;28;20450;-60
2023/06/05 14:06:05;;;;;;;3.55;1.60;;;25.80;42.10;;;;;;6297868;28;20027;-62
2023/06/05 14:09:06;;;;;;;2.80;1.35;;;25.80;41.80;;;;;;6281364;28;20059;-58
2023/06/05 14:12:09;;;;;;;1.90;1.63;;;25.70;42.00;;;;;;6241917;28;20031;-60
2023/06/05 14:15:11;;;;;;;2.30;1.60;;;25.50;41.70;;;;;;6301759;28;20624;-62
2023/06/05 14:18:13;;;;;;;2.28;1.60;;;25.80;42.30;;;;;;6307156;28;20799;-62
2023/06/05 14:21:15;;;;;;;2.30;1.17;;;25.40;42.00;;;;;;6313700;28;20331;-62
2023/06/05 14:24:17;;;;;;;1.65;1.10;;;25.30;41.60;;;;;;6315910;28;20070;-63
2023/06/05 14:27:19;;;;;;;1.50;1.10;;;25.80;41.90;;;;;;6307296;28;20112;-61
2023/06/05 14:30:21;;;;;;;3.70;1.52;;;25.80;42.20;;;;;;6310388;28;20039;-60
2023/06/05 14:33:22;;;;;;;1.35;1.00;;;25.80;41.70;;;;;;6302651;28;20528;-58
2023/06/05 14:36:25;;;;;;;1.25;0.95;;;25.80;42.10;;;;;;6306981;28;20046;-61
2023/06/05 14:39:26;;;;;;;1.38;1.10;;;25.90;42.10;;;;;;6305950;28;20105;-59
2023/06/05 14:42:28;;;;;;;1.58;0.90;;;25.90;42.60;;;;;;6291789;28;20039;-59
2023/06/05 14:45:30;;;;;;;2.80;1.48;;;25.80;42.20;;;;;;6320498;28;20046;-62
2023/06/05 14:48:34;;;;;;;3.40;1.27;;;25.70;42.20;;;;;;6306588;28;20039;-60
2023/06/05 14:51:36;;;;;;;2.60;1.65;;;26.00;42.30;;;;;;6314502;28;20880;-60
2023/06/05 14:54:37;;;;;;;1.75;1.40;;;25.80;42.70;;;;;;6318624;28;20043;-62
2023/06/05 14:57:40;;;;;;;1.65;1.27;;;25.90;42.40;;;;;;6311831;28;20043;-62
2023/06/05 15:00:41;;;;;;;1.98;1.10;;;24.50;41.80;;;;;;6299854;28;20704;-62
2023/06/05 15:03:43;;;;;;;1.40;1.20;;;25.70;43.00;;;;;;6306936;28;20080;-62
2023/06/05 15:06:44;;;;;;;2.03;1.30;;;26.00;43.00;;;;;;6305958;28;20028;-63
2023/06/05 15:09:46;;;;;;;2.00;1.35;;;25.80;42.90;;;;;;6312281;28;20043;-61
2023/06/05 15:12:48;;;;;;;2.20;1.48;;;26.00;43.10;;;;;;6310672;28;20124;-62
2023/06/05 15:15:50;;;;;;;3.20;1.42;;;25.30;42.70;;;;;;6305603;28;20110;-62
2023/06/05 15:18:51;;;;;;;3.13;1.60;;;25.50;42.80;;;;;;6313322;28;20050;-61
2023/06/05 15:21:53;;;;;;;2.33;1.30;;;25.90;43.20;;;;;;6306085;28;20031;-61
2023/06/05 15:24:55;;;;;;;1.88;1.10;;;25.40;43.00;;;;;;6309441;28;20031;-60
2023/06/05 15:27:57;;;;;;;1.63;1.10;;;25.70;43.40;;;;;;6306449;28;20085;-61
2023/06/05 15:31:01;;;;;;;1.20;1.10;;;25.80;43.80;;;;;;6303810;28;20646;-61
2023/06/05 15:34:15;;;;;;;1.50;1.20;;;25.30;63.70;;;;;;6327839;22;20036;-90
2023/06/05 15:37:18;;;;;;;1.80;1.45;;;25.50;45.40;;;;;;6293573;28;20380;-90
2023/06/05 15:40:24;;;;;;;2.13;1.58;;;28.30;48.60;;;;;;6303494;28;20064;-90
2023/06/05 15:43:27;;;;;;;3.40;1.42;;;24.20;43.60;;;;;;6334473;28;20120;-91
2023/06/05 15:46:30;;;;;;;2.28;1.60;;;24.70;45.30;;;;;;6314917;28;20044;-90
2023/06/05 15:49:32;;;;;;;2.10;1.30;;;24.60;45.60;;;;;;6309254;28;20123;-89
2023/06/05 15:52:35;;;;;;;1.38;1.00;;;23.60;45.00;;;;;;6302477;28;20036;-89
2023/06/05 15:55:38;;;;;;;1.70;1.23;;;23.10;42.70;;;;;;6302536;28;20502;-90
2023/06/05 15:58:42;;;;;;;1.33;1.20;;;25.00;43.90;;;;;;6305797;28;20107;-89
2023/06/05 16:01:46;;;;;;;1.70;1.15;;;23.30;45.60;;;;;;6299314;28;20245;-89
2023/06/05 16:04:48;;;;;;;1.63;1.42;;;27.40;45.10;;;;;;6283461;28;20048;-90
2023/06/05 16:07:50;;;;;;;1.35;1.15;;;27.50;45.10;;;;;;6303840;28;20040;-90
2023/06/05 16:10:52;;;;;;;1.15;1.05;;;24.70;46.20;;;;;;6310913;28;20143;-90
2023/06/05 16:13:55;;;;;;;2.80;1.10;;;24.10;44.30;;;;;;6311157;28;20036;-90
2023/06/05 16:17:07;;;;;;;3.03;0.90;;;23.20;44.50;;;;;;6310596;28;20300;-89
2023/06/05 16:20:09;;;;;;;1.15;0.80;;;25.90;44.20;;;;;;6310370;28;20048;-89
2023/06/05 16:23:11;;;;;;;1.42;0.82;;;27.10;44.00;;;;;;6307761;28;20116;-90
2023/06/05 16:26:13;;;;;;;1.20;0.88;;;24.20;44.30;;;;;;6328071;28;20051;-89
2023/06/05 16:29:16;;;;;;;0.90;0.70;;;22.20;44.40;;;;;;6319106;28;20051;-88
2023/06/05 16:32:21;;;;;;;0.77;0.60;;;25.80;45.00;;;;;;6319680;28;20044;-90
2023/06/05 16:35:22;;;;;;;0.85;0.65;;;25.60;43.30;;;;;;6299545;22;20128;-53
2023/06/05 16:38:24;;;;;;;0.80;0.65;;;25.50;42.80;;;;;;6294507;28;20035;-54
2023/06/05 16:41:26;;;;;;;0.80;0.70;;;25.50;42.60;;;;;;6300778;28;20042;-51
2023/06/05 16:44:28;;;;;;;2.13;0.80;;;25.80;42.80;;;;;;6299230;28;20081;-54
2023/06/05 16:47:29;;;;;;;0.77;0.60;;;25.70;42.70;;;;;;6303295;28;20948;-52
2023/06/05 16:50:31;;;;;;;0.65;0.65;;;26.00;42.90;;;;;;6305597;28;20575;-54
2023/06/05 16:53:32;;;;;;;0.73;0.70;;;25.70;42.70;;;;;;6251521;28;20220;-56